Time,TemperatureF,DewpointF,PressureIn,WindDirection,WindDirectionDegrees,WindSpeedMPH,WindSpeedGustMPH,Humidity,HourlyPrecipIn,Conditions,Clouds,dailyrainin,SoftwareType,DateUTC
2013-05-10 00:00:00,70.5,63.7,30.24,SE,146,2.0,3.0,79,0.00,CLR,CLR,0.00,WeatherDisplay:10.37,2013-05-10 04:00:00,
2013-05-10 00:05:00,70.5,63.7,30.23,SE,140,2.0,3.0,79,0.00,CLR,CLR,0.00,WeatherDisplay:10.37,2013-05-10 04:05:00,
2013-05-10 00:10:00,70.3,63.5,30.23,SE,136,1.0,2.0,79,0.00,CLR,CLR,0.00,WeatherDisplay:10.37,2013-05-10 04:10:00,
2013-05-10 00:15:00,70.2,63.7,30.24,SE,140,2.0,3.0,80,0.00,CLR,CLR,0.00,WeatherDisplay:10.37,2013-05-10 04:15:00,
2013-05-10 00:20:00,70.3,63.8,30.24,SE,140,2.0,4.0,80,0.00,CLR,CLR,0.00,WeatherDisplay:10.37,2013-05-10 04:20:00,
2013-05-10 00:25:00,70.3,63.9,30.24,SE,141,2.0,4.0,80,0.00,CLR,CLR,0.00,WeatherDisplay:10.37,2013-05-10 04:25:00,
2013-05-10 00:30:00,70.2,63.8,30.24,SSE,154,2.0,4.0,80,0.00,CLR,CLR,0.00,WeatherDisplay:10.37,2013-05-10 04:30:00,
2013-05-10 00:35:00,70.3,64.2,30.24,SSE,154,2.0,5.0,81,0.00,CLR,CLR,0.00,WeatherDisplay:10.37,2013-05-10 04:35:00,
2013-05-10 00:40:00,70.3,64.2,30.24,SE,145,3.0,5.0,81,0.00,CLR,CLR,0.00,WeatherDisplay:10.37,2013-05-10 04:40:00,
2013-05-10 00:45:00,70.3,64.2,30.23,SE,145,2.0,5.0,81,0.00,CLR,CLR,0.00,WeatherDisplay:10.37,2013-05-10 04:45:00,
2013-05-10 00:50:00,70.3,64.6,30.24,SE,144,2.0,5.0,82,0.00,CLR,CLR,0.00,WeatherDisplay:10.37,2013-05-10 04:50:00,
2013-05-10 01:00:00,70.2,64.4,30.23,SSE,153,2.0,5.0,82,0.00,CLR,CLR,0.00,WeatherDisplay:10.37,2013-05-10 05:00:00,
2013-05-10 01:05:00,70.2,64.8,30.23,SSE,161,5.0,5.0,83,0.00,CLR,CLR,0.00,WeatherDisplay:10.37,2013-05-10 05:05:00,
2013-05-10 01:10:00,70.2,64.8,30.23,South,171,2.0,4.0,83,0.00,CLR,CLR,0.00,WeatherDisplay:10.37,2013-05-10 05:10:00,
2013-05-10 01:20:00,70.0,64.9,30.23,SSE,160,2.0,5.0,84,0.00,CLR,CLR,0.00,WeatherDisplay:10.37,2013-05-10 05:20:00,
2013-05-10 01:25:00,69.8,64.7,30.23,SSE,154,1.0,3.0,84,0.00,CLR,CLR,0.00,WeatherDisplay:10.37,2013-05-10 05:25:00,
2013-05-10 01:30:00,69.7,64.7,30.22,SSE,157,1.0,2.0,84,0.00,CLR,CLR,0.00,WeatherDisplay:10.37,2013-05-10 05:30:00,
2013-05-10 01:35:00,69.6,64.6,30.23,South,172,2.0,3.0,84,0.00,CLR,CLR,0.00,WeatherDisplay:10.37,2013-05-10 05:35:00,
2013-05-10 01:40:00,69.7,65.0,30.23,South,183,2.0,3.0,85,0.00,CLR,CLR,0.00,WeatherDisplay:10.37,2013-05-10 05:40:00,
2013-05-10 01:45:00,69.6,64.9,30.22,South,185,1.0,3.0,85,0.00,CLR,CLR,0.00,WeatherDisplay:10.37,2013-05-10 05:45:00,
2013-05-10 01:50:00,69.6,64.9,30.22,South,176,2.0,3.0,85,0.00,CLR,CLR,0.00,WeatherDisplay:10.37,2013-05-10 05:50:00,
2013-05-10 02:00:00,69.4,64.7,30.21,SSE,159,3.0,5.0,85,0.00,CLR,CLR,0.00,WeatherDisplay:10.37,2013-05-10 06:00:00,
2013-05-10 02:10:00,69.4,65.1,30.21,SSE,157,1.0,3.0,86,0.00,CLR,CLR,0.00,WeatherDisplay:10.37,2013-05-10 06:10:00,
2013-05-10 02:20:00,68.9,64.2,30.20,South,170,0.0,1.0,85,0.00,CLR,CLR,0.00,WeatherDisplay:10.37,2013-05-10 06:20:00,
2013-05-10 02:25:00,68.7,64.0,30.20,SSE,161,0.0,0.0,85,0.00,CLR,CLR,0.00,WeatherDisplay:10.37,2013-05-10 06:25:00,
2013-05-10 02:30:00,68.5,64.2,30.20,SSE,153,0.0,1.0,86,0.00,CLR,CLR,0.00,WeatherDisplay:10.37,2013-05-10 06:30:00,
2013-05-10 02:40:00,68.7,64.7,30.19,SSE,164,2.0,2.0,87,0.00,CLR,CLR,0.00,WeatherDisplay:10.37,2013-05-10 06:40:00,
2013-05-10 02:45:00,68.9,64.9,30.19,South,172,2.0,3.0,87,0.00,CLR,CLR,0.00,WeatherDisplay:10.37,2013-05-10 06:45:00,
2013-05-10 02:50:00,68.9,64.9,30.19,South,181,1.0,3.0,87,0.00,CLR,CLR,0.00,WeatherDisplay:10.37,2013-05-10 06:50:00,
2013-05-10 02:55:00,68.9,64.9,30.19,SSW,192,1.0,2.0,87,0.00,CLR,CLR,0.00,WeatherDisplay:10.37,2013-05-10 06:55:00,
2013-05-10 03:00:00,68.7,64.7,30.19,SSW,197,1.0,2.0,87,0.00,CLR,CLR,0.00,WeatherDisplay:10.37,2013-05-10 07:00:00,
2013-05-10 03:05:00,68.7,64.7,30.19,South,186,1.0,2.0,87,0.00,CLR,CLR,0.00,WeatherDisplay:10.37,2013-05-10 07:05:00,
2013-05-10 03:10:00,68.4,64.1,30.19,South,180,0.0,2.0,86,0.00,CLR,CLR,0.00,WeatherDisplay:10.37,2013-05-10 07:10:00,
2013-05-10 03:15:00,68.1,63.8,30.18,South,180,1.0,1.0,86,0.00,CLR,CLR,0.00,WeatherDisplay:10.37,2013-05-10 07:15:00,
2013-05-10 03:20:00,68.0,64.0,30.18,South,180,0.0,1.0,87,0.00,CLR,CLR,0.00,WeatherDisplay:10.37,2013-05-10 07:20:00,
2013-05-10 03:30:00,68.0,64.3,30.19,South,182,1.0,2.0,88,0.00,CLR,CLR,0.00,WeatherDisplay:10.37,2013-05-10 07:30:00,
2013-05-10 03:35:00,68.2,64.5,30.19,SSW,199,1.0,2.0,88,0.00,CLR,CLR,0.00,WeatherDisplay:10.37,2013-05-10 07:35:00,
2013-05-10 03:40:00,68.1,64.4,30.19,SSW,202,1.0,2.0,88,0.00,CLR,CLR,0.00,WeatherDisplay:10.37,2013-05-10 07:40:00,
2013-05-10 03:45:00,68.0,64.3,30.19,SSW,202,1.0,1.0,88,0.00,CLR,CLR,0.00,WeatherDisplay:10.37,2013-05-10 07:45:00,
2013-05-10 03:50:00,67.9,64.2,30.19,SSW,202,0.0,1.0,88,0.00,CLR,CLR,0.00,WeatherDisplay:10.37,2013-05-10 07:50:00,
2013-05-10 03:55:00,67.5,63.5,30.19,SSW,202,0.0,0.0,87,0.00,CLR,CLR,0.00,WeatherDisplay:10.37,2013-05-10 07:55:00,
2013-05-10 04:00:00,67.2,63.5,30.18,SSW,202,0.0,0.0,88,0.00,CLR,CLR,0.00,WeatherDisplay:10.37,2013-05-10 08:00:00,
2013-05-10 04:05:00,67.0,63.0,30.18,SSW,202,0.0,0.0,87,0.00,CLR,CLR,0.00,WeatherDisplay:10.37,2013-05-10 08:05:00,
2013-05-10 04:10:00,67.1,63.4,30.18,SSW,202,0.0,0.0,88,0.00,CLR,CLR,0.00,WeatherDisplay:10.37,2013-05-10 08:10:00,
2013-05-10 04:15:00,67.2,64.2,30.18,SSW,202,0.0,1.0,90,0.00,CLR,CLR,0.00,WeatherDisplay:10.37,2013-05-10 08:15:00,
2013-05-10 04:20:00,66.9,63.6,30.18,SSW,202,0.0,1.0,89,0.00,CLR,CLR,0.00,WeatherDisplay:10.37,2013-05-10 08:20:00,
2013-05-10 04:25:00,66.9,64.2,30.18,SSW,202,0.0,0.0,91,0.00,CLR,CLR,0.00,WeatherDisplay:10.37,2013-05-10 08:25:00,
2013-05-10 04:30:00,66.7,64.0,30.18,SSW,202,0.0,1.0,91,0.00,CLR,CLR,0.00,WeatherDisplay:10.37,2013-05-10 08:30:00,
2013-05-10 04:35:00,66.6,63.5,30.18,SSW,202,0.0,0.0,90,0.00,CLR,CLR,0.00,WeatherDisplay:10.37,2013-05-10 08:35:00,
2013-05-10 04:40:00,66.4,63.0,30.18,SSW,202,0.0,0.0,89,0.00,CLR,CLR,0.00,WeatherDisplay:10.37,2013-05-10 08:40:00,
2013-05-10 04:45:00,65.9,62.3,30.18,SSW,202,0.0,0.0,88,0.00,CLR,CLR,0.00,WeatherDisplay:10.37,2013-05-10 08:45:00,
2013-05-10 04:50:00,66.0,62.7,30.18,SSW,202,0.0,0.0,89,0.00,CLR,CLR,0.00,WeatherDisplay:10.37,2013-05-10 08:50:00,
2013-05-10 04:55:00,66.1,63.1,30.17,SSW,202,0.0,0.0,90,0.00,CLR,CLR,0.00,WeatherDisplay:10.37,2013-05-10 08:55:00,
2013-05-10 05:00:00,66.2,63.2,30.17,SSW,202,0.0,0.0,90,0.00,CLR,CLR,0.00,WeatherDisplay:10.37,2013-05-10 09:00:00,
2013-05-10 05:05:00,66.3,63.3,30.18,SSW,202,0.0,0.0,90,0.00,CLR,CLR,0.00,WeatherDisplay:10.37,2013-05-10 09:05:00,
2013-05-10 05:10:00,66.2,63.5,30.18,SSW,202,0.0,1.0,91,0.00,CLR,CLR,0.00,WeatherDisplay:10.37,2013-05-10 09:10:00,
2013-05-10 05:15:00,65.8,62.8,30.17,SSE,167,1.0,1.0,90,0.00,CLR,CLR,0.00,WeatherDisplay:10.37,2013-05-10 09:15:00,
2013-05-10 05:20:00,65.8,63.1,30.18,ESE,121,1.0,1.0,91,0.00,CLR,CLR,0.00,WeatherDisplay:10.37,2013-05-10 09:20:00,
2013-05-10 05:25:00,65.7,63.0,30.17,ESE,112,0.0,1.0,91,0.00,CLR,CLR,0.00,WeatherDisplay:10.37,2013-05-10 09:25:00,
2013-05-10 05:30:00,65.5,62.5,30.18,ESE,112,0.0,1.0,90,0.00,CLR,CLR,0.00,WeatherDisplay:10.37,2013-05-10 09:30:00,
2013-05-10 05:35:00,65.5,62.5,30.18,ESE,112,0.0,1.0,90,0.00,CLR,CLR,0.00,WeatherDisplay:10.37,2013-05-10 09:35:00,
2013-05-10 05:40:00,65.5,62.5,30.18,ESE,112,0.0,1.0,90,0.00,CLR,CLR,0.00,WeatherDisplay:10.37,2013-05-10 09:40:00,
2013-05-10 05:45:00,65.5,62.5,30.18,ESE,112,1.0,1.0,90,0.00,CLR,CLR,0.00,WeatherDisplay:10.37,2013-05-10 09:45:00,
2013-05-10 05:50:00,65.5,62.5,30.18,ENE,76,2.0,2.0,90,0.00,CLR,CLR,0.00,WeatherDisplay:10.37,2013-05-10 09:50:00,
2013-05-10 05:55:00,65.8,63.1,30.18,NE,52,2.0,2.0,91,0.00,CLR,CLR,0.00,WeatherDisplay:10.37,2013-05-10 09:55:00,
2013-05-10 06:00:00,65.8,63.1,30.18,NE,48,1.0,2.0,91,0.00,CLR,CLR,0.00,WeatherDisplay:10.37,2013-05-10 10:00:00,
2013-05-10 06:05:00,65.8,63.1,30.18,NE,50,1.0,2.0,91,0.00,CLR,CLR,0.00,WeatherDisplay:10.37,2013-05-10 10:05:00,
2013-05-10 06:10:00,65.7,63.0,30.18,ENE,58,1.0,1.0,91,0.00,CLR,CLR,0.00,WeatherDisplay:10.37,2013-05-10 10:10:00,
2013-05-10 06:15:00,65.7,62.6,30.18,East,81,1.0,2.0,90,0.00,CLR,CLR,0.00,WeatherDisplay:10.37,2013-05-10 10:15:00,
2013-05-10 06:20:00,65.7,62.6,30.18,East,89,1.0,2.0,90,0.00,CLR,CLR,0.00,WeatherDisplay:10.37,2013-05-10 10:20:00,
2013-05-10 06:25:00,65.7,62.6,30.18,East,93,1.0,3.0,90,0.00,CLR,CLR,0.00,WeatherDisplay:10.37,2013-05-10 10:25:00,
2013-05-10 06:30:00,65.6,62.6,30.18,East,92,1.0,2.0,90,0.00,CLR,CLR,0.00,WeatherDisplay:10.37,2013-05-10 10:30:00,
2013-05-10 06:35:00,65.7,62.6,30.18,East,87,1.0,3.0,90,0.00,CLR,CLR,0.00,WeatherDisplay:10.37,2013-05-10 10:35:00,
2013-05-10 06:40:00,65.5,62.5,30.18,East,81,1.0,2.0,90,0.00,CLR,CLR,0.00,WeatherDisplay:10.37,2013-05-10 10:40:00,
2013-05-10 06:45:00,65.7,62.6,30.18,East,92,1.0,2.0,90,0.00,CLR,CLR,0.00,WeatherDisplay:10.37,2013-05-10 10:45:00,
2013-05-10 06:50:00,65.7,63.0,30.18,ESE,102,1.0,2.0,91,0.00,CLR,CLR,0.00,WeatherDisplay:10.37,2013-05-10 10:50:00,
2013-05-10 06:55:00,65.8,63.1,30.18,East,93,1.0,2.0,91,0.00,CLR,CLR,0.00,WeatherDisplay:10.37,2013-05-10 10:55:00,
2013-05-10 07:05:00,66.0,63.3,30.18,ENE,69,1.0,2.0,91,0.00,CLR,CLR,0.00,WeatherDisplay:10.37,2013-05-10 11:05:00,
2013-05-10 07:10:00,66.2,63.5,30.19,ENE,65,1.0,1.0,91,0.00,CLR,CLR,0.00,WeatherDisplay:10.37,2013-05-10 11:10:00,
2013-05-10 07:15:00,66.6,63.9,30.19,East,94,1.0,1.0,91,0.00,CLR,CLR,0.00,WeatherDisplay:10.37,2013-05-10 11:15:00,
2013-05-10 07:20:00,67.3,64.6,30.19,East,86,2.0,2.0,91,0.00,FEW,FEW,0.00,WeatherDisplay:10.37,2013-05-10 11:20:00,
2013-05-10 07:30:00,68.7,65.7,30.19,East,81,1.0,2.0,90,0.00,FEW,FEW,0.00,WeatherDisplay:10.37,2013-05-10 11:30:00,
2013-05-10 07:35:00,69.7,65.9,30.19,East,92,2.0,3.0,88,0.00,FEW,FEW,0.00,WeatherDisplay:10.37,2013-05-10 11:35:00,
2013-05-10 07:40:00,70.6,66.5,30.19,East,100,3.0,5.0,87,0.00,FEW,FEW,0.00,WeatherDisplay:10.37,2013-05-10 11:40:00,
2013-05-10 07:45:00,71.2,66.8,30.19,ESE,105,1.0,3.0,86,0.00,FEW,FEW,0.00,WeatherDisplay:10.37,2013-05-10 11:45:00,
2013-05-10 07:50:00,72.1,67.0,30.19,ESE,106,1.0,3.0,84,0.00,FEW,FEW,0.00,WeatherDisplay:10.37,2013-05-10 11:50:00,
2013-05-10 08:00:00,73.0,67.5,30.18,ESE,111,1.0,5.0,83,0.00,FEW,FEW,0.00,WeatherDisplay:10.37,2013-05-10 12:00:00,
2013-05-10 08:05:00,73.2,67.7,30.18,ESE,119,2.0,5.0,83,0.00,FEW,FEW,0.00,WeatherDisplay:10.37,2013-05-10 12:05:00,
2013-05-10 08:10:00,73.8,68.4,30.18,SE,127,2.0,5.0,83,0.00,FEW,FEW,0.00,WeatherDisplay:10.37,2013-05-10 12:10:00,
2013-05-10 08:15:00,73.8,67.9,30.18,SE,140,5.0,6.0,82,0.00,FEW,FEW,0.00,WeatherDisplay:10.37,2013-05-10 12:15:00,
2013-05-10 08:20:00,73.8,68.3,30.18,SE,136,5.0,6.0,83,0.00,FEW,FEW,0.00,WeatherDisplay:10.37,2013-05-10 12:20:00,
2013-05-10 08:25:00,74.0,68.5,30.18,SE,133,5.0,6.0,83,0.00,FEW,FEW,0.00,WeatherDisplay:10.37,2013-05-10 12:25:00,
2013-05-10 08:30:00,74.2,68.4,30.18,SE,137,5.0,7.0,82,0.00,FEW,FEW,0.00,WeatherDisplay:10.37,2013-05-10 12:30:00,
2013-05-10 08:40:00,75.2,69.0,30.18,SE,134,3.0,7.0,81,0.00,FEW,FEW,0.00,WeatherDisplay:10.37,2013-05-10 12:40:00,
2013-05-10 08:50:00,76.8,69.8,30.18,SE,140,2.0,5.0,79,0.00,FEW,FEW,0.00,WeatherDisplay:10.37,2013-05-10 12:50:00,
2013-05-10 08:55:00,77.3,69.9,30.18,SE,131,5.0,8.0,78,0.00,FEW,FEW,0.00,WeatherDisplay:10.37,2013-05-10 12:55:00,
2013-05-10 09:00:00,77.1,69.3,30.19,SE,135,7.0,9.0,77,0.00,FEW,FEW,0.00,WeatherDisplay:10.37,2013-05-10 13:00:00,
2013-05-10 09:05:00,77.4,69.6,30.19,SE,136,6.0,9.0,77,0.00,FEW,FEW,0.00,WeatherDisplay:10.37,2013-05-10 13:05:00,
2013-05-10 09:15:00,77.7,69.5,30.19,SE,136,5.0,7.0,76,0.00,FEW,FEW,0.00,WeatherDisplay:10.37,2013-05-10 13:15:00,
2013-05-10 09:20:00,77.9,69.7,30.19,SE,143,5.0,8.0,76,0.00,FEW,FEW,0.00,WeatherDisplay:10.37,2013-05-10 13:20:00,
2013-05-10 09:25:00,78.7,69.7,30.20,SSE,147,6.0,8.0,74,0.00,FEW,FEW,0.00,WeatherDisplay:10.37,2013-05-10 13:25:00,
2013-05-10 09:35:00,79.0,69.6,30.20,SSE,159,6.0,7.0,73,0.00,FEW,FEW,0.00,WeatherDisplay:10.37,2013-05-10 13:35:00,
2013-05-10 09:40:00,78.8,69.4,30.20,SSE,165,6.0,8.0,73,0.00,FEW,FEW,0.00,WeatherDisplay:10.37,2013-05-10 13:40:00,
2013-05-10 09:45:00,79.2,69.4,30.19,South,169,5.0,9.0,72,0.00,FEW,FEW,0.00,WeatherDisplay:10.37,2013-05-10 13:45:00,
2013-05-10 09:55:00,79.8,69.5,30.19,SE,143,7.0,10.0,71,0.00,FEW,FEW,0.00,WeatherDisplay:10.37,2013-05-10 13:55:00,
2013-05-10 10:00:00,80.2,69.5,30.19,SSE,149,6.0,7.0,70,0.00,FEW,FEW,0.00,WeatherDisplay:10.37,2013-05-10 14:00:00,
2013-05-10 10:05:00,80.2,68.7,30.19,South,172,6.0,10.0,68,0.00,SCT,SCT,0.00,WeatherDisplay:10.37,2013-05-10 14:05:00,
2013-05-10 10:10:00,80.7,69.2,30.19,SSE,163,6.0,10.0,68,0.00,SCT,SCT,0.00,WeatherDisplay:10.37,2013-05-10 14:10:00,
2013-05-10 10:15:00,81.3,68.9,30.19,SE,143,5.0,9.0,66,0.00,SCT,SCT,0.00,WeatherDisplay:10.37,2013-05-10 14:15:00,
2013-05-10 10:20:00,81.6,69.1,30.19,SE,138,5.0,9.0,66,0.00,SCT,SCT,0.00,WeatherDisplay:10.37,2013-05-10 14:20:00,
2013-05-10 10:25:00,81.9,68.9,30.19,SSE,153,8.0,12.0,65,0.00,SCT,SCT,0.00,WeatherDisplay:10.37,2013-05-10 14:25:00,
2013-05-10 10:35:00,82.1,68.8,30.19,SE,137,3.0,9.0,64,0.00,SCT,SCT,0.00,WeatherDisplay:10.37,2013-05-10 14:35:00,
2013-05-10 10:40:00,82.8,68.5,30.19,SE,137,5.0,8.0,62,0.00,SCT,SCT,0.00,WeatherDisplay:10.37,2013-05-10 14:40:00,
2013-05-10 10:45:00,82.3,67.9,30.19,SE,141,6.0,10.0,62,0.00,SCT,SCT,0.00,WeatherDisplay:10.37,2013-05-10 14:45:00,
2013-05-10 10:55:00,82.7,68.4,30.19,SSE,163,6.0,10.0,62,0.00,SCT,SCT,0.00,WeatherDisplay:10.37,2013-05-10 14:55:00,
2013-05-10 11:00:00,82.6,67.8,30.18,SSE,160,5.0,12.0,61,0.00,SCT,SCT,0.00,WeatherDisplay:10.37,2013-05-10 15:00:00,
2013-05-10 11:10:00,83.2,67.4,30.18,SSE,157,7.0,9.0,59,0.00,SCT,SCT,0.00,WeatherDisplay:10.37,2013-05-10 15:10:00,
2013-05-10 11:15:00,83.4,66.6,30.19,SSE,154,7.0,9.0,57,0.00,SCT,SCT,0.00,WeatherDisplay:10.37,2013-05-10 15:15:00,
2013-05-10 11:20:00,83.5,66.1,30.19,SSE,147,9.0,12.0,56,0.00,SCT,SCT,0.00,WeatherDisplay:10.37,2013-05-10 15:20:00,
2013-05-10 11:30:00,83.2,67.4,30.18,SSE,155,6.0,8.0,59,0.00,SCT,SCT,0.00,WeatherDisplay:10.37,2013-05-10 15:30:00,
2013-05-10 11:35:00,83.9,66.6,30.18,SSE,150,8.0,10.0,56,0.00,SCT,SCT,0.00,WeatherDisplay:10.37,2013-05-10 15:35:00,
2013-05-10 11:40:00,84.6,67.1,30.18,SE,145,6.0,10.0,56,0.00,SCT,SCT,0.00,WeatherDisplay:10.37,2013-05-10 15:40:00,
2013-05-10 11:45:00,84.0,67.1,30.18,SE,136,5.0,11.0,57,0.00,SCT,SCT,0.00,WeatherDisplay:10.37,2013-05-10 15:45:00,
2013-05-10 11:55:00,84.2,66.8,30.18,SE,137,8.0,10.0,56,0.00,SCT,SCT,0.00,WeatherDisplay:10.37,2013-05-10 15:55:00,
2013-05-10 12:00:00,84.9,66.9,30.18,SSE,151,5.0,9.0,55,0.00,SCT,SCT,0.00,WeatherDisplay:10.37,2013-05-10 16:00:00,
2013-05-10 12:05:00,85.3,66.8,30.18,SSE,153,6.0,7.0,54,0.00,SCT,SCT,0.00,WeatherDisplay:10.37,2013-05-10 16:05:00,
2013-05-10 12:10:00,85.5,66.4,30.19,SSE,160,6.0,10.0,53,0.00,SCT,SCT,0.00,WeatherDisplay:10.37,2013-05-10 16:10:00,
2013-05-10 12:15:00,85.2,67.2,30.19,South,170,6.0,7.0,55,0.00,SCT,SCT,0.00,WeatherDisplay:10.37,2013-05-10 16:15:00,
2013-05-10 12:20:00,84.9,66.4,30.18,SSE,155,6.0,12.0,54,0.00,SCT,SCT,0.00,WeatherDisplay:10.37,2013-05-10 16:20:00,
2013-05-10 12:25:00,85.0,66.5,30.18,SSE,155,5.0,12.0,54,0.00,SCT,SCT,0.00,WeatherDisplay:10.37,2013-05-10 16:25:00,
2013-05-10 12:30:00,84.8,65.8,30.19,SSE,166,6.0,10.0,53,0.00,SCT,SCT,0.00,WeatherDisplay:10.37,2013-05-10 16:30:00,
2013-05-10 12:40:00,84.8,66.8,30.18,South,188,5.0,9.0,55,0.00,SCT,SCT,0.00,WeatherDisplay:10.37,2013-05-10 16:40:00,
2013-05-10 12:45:00,85.6,65.9,30.18,SSW,198,5.0,9.0,52,0.00,SCT,SCT,0.00,WeatherDisplay:10.37,2013-05-10 16:45:00,
2013-05-10 12:50:00,85.3,66.2,30.18,SSW,203,3.0,9.0,53,0.00,SCT,SCT,0.00,WeatherDisplay:10.37,2013-05-10 16:50:00,
2013-05-10 12:55:00,85.6,65.9,30.18,SSW,197,7.0,8.0,52,0.00,SCT,SCT,0.00,WeatherDisplay:10.37,2013-05-10 16:55:00,
2013-05-10 13:00:00,86.8,65.9,30.18,SSE,168,6.0,8.0,50,0.00,SCT,SCT,0.00,WeatherDisplay:10.37,2013-05-10 17:00:00,
2013-05-10 13:05:00,87.3,65.8,30.18,South,179,5.0,7.0,49,0.00,SCT,SCT,0.00,WeatherDisplay:10.37,2013-05-10 17:05:00,
2013-05-10 13:10:00,87.8,65.7,30.18,South,186,5.0,7.0,48,0.00,SCT,SCT,0.00,WeatherDisplay:10.37,2013-05-10 17:10:00,
2013-05-10 13:15:00,88.2,66.6,30.18,SSE,157,9.0,12.0,49,0.00,SCT,SCT,0.00,WeatherDisplay:10.37,2013-05-10 17:15:00,
2013-05-10 13:20:00,87.2,65.7,30.18,SSE,159,5.0,12.0,49,0.00,SCT,SCT,0.00,WeatherDisplay:10.37,2013-05-10 17:20:00,
2013-05-10 13:25:00,87.5,66.0,30.17,South,180,5.0,6.0,49,0.00,SCT,SCT,0.00,WeatherDisplay:10.37,2013-05-10 17:25:00,
2013-05-10 13:30:00,88.0,64.6,30.17,South,183,6.0,7.0,46,0.00,SCT,SCT,0.00,WeatherDisplay:10.37,2013-05-10 17:30:00,
2013-05-10 13:35:00,88.7,65.9,30.17,South,182,6.0,9.0,47,0.00,SCT,SCT,0.00,WeatherDisplay:10.37,2013-05-10 17:35:00,
2013-05-10 13:40:00,87.5,65.4,30.17,SSE,154,6.0,9.0,48,0.00,SCT,SCT,0.00,WeatherDisplay:10.37,2013-05-10 17:40:00,
2013-05-10 13:45:00,86.7,65.9,30.17,SE,141,1.0,7.0,50,0.00,SCT,SCT,0.00,WeatherDisplay:10.37,2013-05-10 17:45:00,
2013-05-10 13:50:00,87.8,65.0,30.17,South,184,7.0,9.0,47,0.00,SCT,SCT,0.00,WeatherDisplay:10.37,2013-05-10 17:50:00,
2013-05-10 13:55:00,88.2,64.8,30.16,South,185,1.0,9.0,46,0.00,SCT,SCT,0.00,WeatherDisplay:10.37,2013-05-10 17:55:00,
2013-05-10 14:00:00,89.2,65.1,30.16,South,180,6.0,8.0,45,0.00,SCT,SCT,0.00,WeatherDisplay:10.37,2013-05-10 18:00:00,
2013-05-10 14:05:00,88.9,64.8,30.16,South,189,5.0,7.0,45,0.00,BKN,BKN,0.00,WeatherDisplay:10.37,2013-05-10 18:05:00,
2013-05-10 14:15:00,89.2,65.7,30.16,South,173,5.0,7.0,46,0.00,BKN,BKN,0.00,WeatherDisplay:10.37,2013-05-10 18:15:00,
2013-05-10 14:20:00,89.0,64.2,30.16,South,189,5.0,10.0,44,0.00,BKN,BKN,0.00,WeatherDisplay:10.37,2013-05-10 18:20:00,
2013-05-10 14:30:00,88.1,64.1,30.16,SW,222,6.0,9.0,45,0.00,BKN,BKN,0.00,WeatherDisplay:10.37,2013-05-10 18:30:00,
2013-05-10 14:35:00,89.1,65.0,30.16,SSW,213,2.0,7.0,45,0.00,BKN,BKN,0.00,WeatherDisplay:10.37,2013-05-10 18:35:00,
2013-05-10 14:40:00,89.3,65.2,30.16,SSW,212,7.0,8.0,45,0.00,BKN,BKN,0.00,WeatherDisplay:10.37,2013-05-10 18:40:00,
2013-05-10 14:45:00,89.6,65.4,30.15,SSW,203,5.0,8.0,45,0.00,BKN,BKN,0.00,WeatherDisplay:10.37,2013-05-10 18:45:00,
2013-05-10 14:50:00,89.9,65.7,30.15,South,176,5.0,6.0,45,0.00,BKN,BKN,0.00,WeatherDisplay:10.37,2013-05-10 18:50:00,
2013-05-10 14:55:00,89.6,66.1,30.15,South,186,5.0,7.0,46,0.00,BKN,BKN,0.00,WeatherDisplay:10.37,2013-05-10 18:55:00,
2013-05-10 15:00:00,89.3,65.2,30.15,South,185,5.0,8.0,45,0.00,BKN,BKN,0.00,WeatherDisplay:10.37,2013-05-10 19:00:00,
2013-05-10 15:05:00,90.5,65.6,30.14,South,184,3.0,5.0,44,0.00,BKN,BKN,0.00,WeatherDisplay:10.37,2013-05-10 19:05:00,
2013-05-10 15:10:00,91.4,65.0,30.14,SSW,211,5.0,7.0,42,0.00,BKN,BKN,0.00,WeatherDisplay:10.37,2013-05-10 19:10:00,
2013-05-10 15:20:00,89.8,64.3,30.13,SSE,154,7.0,8.0,43,0.00,BKN,BKN,0.00,WeatherDisplay:10.37,2013-05-10 19:20:00,
2013-05-10 15:25:00,89.5,63.4,30.13,SSW,192,3.0,7.0,42,0.00,BKN,BKN,0.00,WeatherDisplay:10.37,2013-05-10 19:25:00,
2013-05-10 15:30:00,88.9,64.2,30.13,SW,222,5.0,9.0,44,0.00,BKN,BKN,0.00,WeatherDisplay:10.37,2013-05-10 19:30:00,
2013-05-10 15:40:00,90.0,65.8,30.13,SSW,212,7.0,10.0,45,0.00,BKN,BKN,0.00,WeatherDisplay:10.37,2013-05-10 19:40:00,
2013-05-10 15:45:00,90.3,66.1,30.13,SSW,208,6.0,10.0,45,0.00,BKN,BKN,0.00,WeatherDisplay:10.37,2013-05-10 19:45:00,
2013-05-10 15:50:00,89.5,66.6,30.12,SSW,206,5.0,9.0,47,0.00,BKN,BKN,0.00,WeatherDisplay:10.37,2013-05-10 19:50:00,
2013-05-10 15:55:00,89.4,65.9,30.12,SSW,200,5.0,10.0,46,0.00,BKN,BKN,0.00,WeatherDisplay:10.37,2013-05-10 19:55:00,
2013-05-10 16:00:00,89.5,65.4,30.12,SSW,198,5.0,8.0,45,0.00,BKN,BKN,0.00,WeatherDisplay:10.37,2013-05-10 20:00:00,
2013-05-10 16:05:00,89.9,64.4,30.12,SSW,198,5.0,7.0,43,0.00,BKN,BKN,0.00,WeatherDisplay:10.37,2013-05-10 20:05:00,
2013-05-10 16:10:00,90.3,63.4,30.12,SSW,200,5.0,7.0,41,0.00,BKN,BKN,0.00,WeatherDisplay:10.37,2013-05-10 20:10:00,
2013-05-10 16:15:00,90.0,63.9,30.11,South,169,2.0,7.0,42,0.00,BKN,BKN,0.00,WeatherDisplay:10.37,2013-05-10 20:15:00,
2013-05-10 16:20:00,90.1,64.6,30.11,South,184,5.0,7.0,43,0.00,BKN,BKN,0.00,WeatherDisplay:10.37,2013-05-10 20:20:00,
2013-05-10 16:25:00,88.9,64.2,30.11,SSW,192,5.0,7.0,44,0.00,BKN,BKN,0.00,WeatherDisplay:10.37,2013-05-10 20:25:00,
2013-05-10 16:30:00,88.2,64.2,30.11,South,179,6.0,9.0,45,0.00,BKN,BKN,0.00,WeatherDisplay:10.37,2013-05-10 20:30:00,
2013-05-10 16:35:00,88.1,64.7,30.11,SSW,208,3.0,8.0,46,0.00,BKN,BKN,0.00,WeatherDisplay:10.37,2013-05-10 20:35:00,
2013-05-10 16:40:00,88.7,65.3,30.11,SW,216,2.0,6.0,46,0.00,BKN,BKN,0.00,WeatherDisplay:10.37,2013-05-10 20:40:00,
2013-05-10 16:45:00,89.2,64.5,30.11,SSW,207,5.0,7.0,44,0.00,BKN,BKN,0.00,WeatherDisplay:10.37,2013-05-10 20:45:00,
2013-05-10 16:50:00,90.4,65.5,30.11,WSW,244,2.0,5.0,44,0.00,BKN,BKN,0.00,WeatherDisplay:10.37,2013-05-10 20:50:00,
2013-05-10 17:00:00,90.3,66.1,30.11,WNW,286,2.0,6.0,45,0.00,BKN,BKN,0.00,WeatherDisplay:10.37,2013-05-10 21:00:00,
2013-05-10 17:05:00,90.1,65.3,30.11,WNW,291,2.0,6.0,44,0.00,BKN,BKN,0.00,WeatherDisplay:10.37,2013-05-10 21:05:00,
2013-05-10 17:10:00,88.7,66.5,30.10,NW,321,1.0,7.0,48,0.00,BKN,BKN,0.00,WeatherDisplay:10.37,2013-05-10 21:10:00,
2013-05-10 17:15:00,88.6,66.4,30.10,NNE,15,2.0,5.0,48,0.00,BKN,BKN,0.00,WeatherDisplay:10.37,2013-05-10 21:15:00,
2013-05-10 17:20:00,88.6,66.4,30.10,North,360,2.0,6.0,48,0.00,BKN,BKN,0.00,WeatherDisplay:10.37,2013-05-10 21:20:00,
2013-05-10 17:25:00,88.7,65.3,30.10,NNW,331,1.0,5.0,46,0.00,BKN,BKN,0.00,WeatherDisplay:10.37,2013-05-10 21:25:00,
2013-05-10 17:30:00,88.8,65.9,30.10,NNW,341,5.0,6.0,47,0.00,BKN,BKN,0.00,WeatherDisplay:10.37,2013-05-10 21:30:00,
2013-05-10 17:35:00,88.2,65.5,30.10,North,349,3.0,6.0,47,0.00,BKN,BKN,0.00,WeatherDisplay:10.37,2013-05-10 21:35:00,
2013-05-10 17:40:00,88.2,66.0,30.10,NNW,341,0.0,3.0,48,0.00,BKN,BKN,0.00,WeatherDisplay:10.37,2013-05-10 21:40:00,
2013-05-10 17:45:00,88.2,66.0,30.09,NNE,12,2.0,7.0,48,0.00,BKN,BKN,0.00,WeatherDisplay:10.37,2013-05-10 21:45:00,
2013-05-10 17:50:00,87.2,67.5,30.09,NE,40,7.0,9.0,52,0.00,BKN,BKN,0.00,WeatherDisplay:10.37,2013-05-10 21:50:00,
2013-05-10 17:55:00,86.4,68.3,30.09,NE,47,7.0,10.0,55,0.00,BKN,BKN,0.00,WeatherDisplay:10.37,2013-05-10 21:55:00,
2013-05-10 18:00:00,85.9,68.9,30.09,NE,50,10.0,13.0,57,0.00,BKN,BKN,0.00,WeatherDisplay:10.37,2013-05-10 22:00:00,
2013-05-10 18:05:00,85.4,70.4,30.09,ENE,74,8.0,12.0,61,0.00,BKN,BKN,0.00,WeatherDisplay:10.37,2013-05-10 22:05:00,
2013-05-10 18:10:00,84.2,70.3,30.09,East,99,6.0,12.0,63,0.00,BKN,BKN,0.00,WeatherDisplay:10.37,2013-05-10 22:10:00,
2013-05-10 18:15:00,83.0,70.0,30.10,ESE,115,10.0,13.0,65,0.00,BKN,BKN,0.00,WeatherDisplay:10.37,2013-05-10 22:15:00,
2013-05-10 18:20:00,82.4,69.0,30.09,ESE,116,5.0,12.0,64,0.00,BKN,BKN,0.00,WeatherDisplay:10.37,2013-05-10 22:20:00,
2013-05-10 18:25:00,82.1,69.1,30.09,East,97,8.0,13.0,65,0.00,BKN,BKN,0.00,WeatherDisplay:10.37,2013-05-10 22:25:00,
2013-05-10 18:30:00,81.5,69.1,30.09,ESE,106,5.0,13.0,66,0.00,BKN,BKN,0.00,WeatherDisplay:10.37,2013-05-10 22:30:00,
2013-05-10 18:35:00,81.6,69.1,30.09,ESE,105,7.0,9.0,66,0.00,BKN,BKN,0.00,WeatherDisplay:10.37,2013-05-10 22:35:00,
2013-05-10 18:40:00,81.5,69.1,30.10,East,98,1.0,9.0,66,0.00,BKN,BKN,0.00,WeatherDisplay:10.37,2013-05-10 22:40:00,
2013-05-10 18:45:00,81.3,69.3,30.11,ESE,105,7.0,10.0,67,0.00,BKN,BKN,0.00,WeatherDisplay:10.37,2013-05-10 22:45:00,
2013-05-10 18:50:00,81.0,69.4,30.10,East,98,5.0,9.0,68,0.00,BKN,BKN,0.00,WeatherDisplay:10.37,2013-05-10 22:50:00,
2013-05-10 18:55:00,81.1,70.0,30.10,East,96,5.0,8.0,69,0.00,BKN,BKN,0.00,WeatherDisplay:10.37,2013-05-10 22:55:00,
2013-05-10 19:00:00,80.8,70.1,30.10,ESE,105,5.0,9.0,70,0.00,BKN,BKN,0.00,WeatherDisplay:10.37,2013-05-10 23:00:00,
2013-05-10 19:05:00,80.7,70.5,30.10,ESE,110,3.0,6.0,71,0.00,BKN,BKN,0.00,WeatherDisplay:10.37,2013-05-10 23:05:00,
2013-05-10 19:10:00,80.6,70.3,30.10,SE,125,3.0,7.0,71,0.00,BKN,BKN,0.00,WeatherDisplay:10.37,2013-05-10 23:10:00,
2013-05-10 19:15:00,80.2,70.0,30.11,SE,134,6.0,9.0,71,0.00,BKN,BKN,0.00,WeatherDisplay:10.37,2013-05-10 23:15:00,
2013-05-10 19:20:00,80.1,69.8,30.11,SE,130,3.0,8.0,71,0.00,BKN,BKN,0.00,WeatherDisplay:10.37,2013-05-10 23:20:00,
2013-05-10 19:25:00,80.1,69.4,30.11,SE,125,8.0,10.0,70,0.00,BKN,BKN,0.00,WeatherDisplay:10.37,2013-05-10 23:25:00,
2013-05-10 19:30:00,79.9,68.8,30.11,ESE,118,5.0,9.0,69,0.00,BKN,BKN,0.00,WeatherDisplay:10.37,2013-05-10 23:30:00,
2013-05-10 19:40:00,79.6,68.5,30.11,SE,143,5.0,7.0,69,0.00,BKN,BKN,0.00,WeatherDisplay:10.37,2013-05-10 23:40:00,
2013-05-10 19:45:00,79.5,68.0,30.11,SE,138,3.0,9.0,68,0.00,BKN,BKN,0.00,WeatherDisplay:10.37,2013-05-10 23:45:00,
2013-05-10 19:50:00,79.3,67.9,30.12,SE,135,2.0,7.0,68,0.00,BKN,BKN,0.00,WeatherDisplay:10.37,2013-05-10 23:50:00,
2013-05-10 19:55:00,79.3,67.8,30.12,SE,133,1.0,7.0,68,0.00,BKN,BKN,0.00,WeatherDisplay:10.37,2013-05-10 23:55:00,
2013-05-10 20:00:00,79.1,67.7,30.12,SE,135,5.0,5.0,68,0.00,BKN,BKN,0.00,WeatherDisplay:10.37,2013-05-11 00:00:00,
2013-05-10 20:05:00,78.8,67.8,30.12,SE,127,3.0,5.0,69,0.00,BKN,BKN,0.00,WeatherDisplay:10.37,2013-05-11 00:05:00,
2013-05-10 20:10:00,78.6,68.4,30.12,SE,130,8.0,9.0,71,0.00,BKN,BKN,0.00,WeatherDisplay:10.37,2013-05-11 00:10:00,
2013-05-10 20:15:00,78.4,68.3,30.12,SE,132,7.0,9.0,71,0.00,BKN,BKN,0.00,WeatherDisplay:10.37,2013-05-11 00:15:00,
2013-05-10 20:20:00,78.4,68.6,30.12,SE,145,5.0,7.0,72,0.00,BKN,BKN,0.00,WeatherDisplay:10.37,2013-05-11 00:20:00,
2013-05-10 20:30:00,78.3,68.9,30.13,SE,143,3.0,7.0,73,0.00,BKN,BKN,0.00,WeatherDisplay:10.37,2013-05-11 00:30:00,
2013-05-10 20:40:00,78.1,69.1,30.13,SE,144,5.0,9.0,74,0.00,BKN,BKN,0.00,WeatherDisplay:10.37,2013-05-11 00:40:00,
2013-05-10 20:50:00,78.1,69.5,30.13,SE,142,6.0,7.0,75,0.00,BKN,BKN,0.00,WeatherDisplay:10.37,2013-05-11 00:50:00,
2013-05-10 20:55:00,77.9,69.3,30.13,SE,137,3.0,7.0,75,0.00,BKN,BKN,0.00,WeatherDisplay:10.37,2013-05-11 00:55:00,
2013-05-10 21:00:00,77.9,69.3,30.13,SE,135,3.0,6.0,75,0.00,BKN,BKN,0.00,WeatherDisplay:10.37,2013-05-11 01:00:00,
2013-05-10 21:05:00,77.9,69.7,30.13,SE,145,5.0,9.0,76,0.00,BKN,BKN,0.00,WeatherDisplay:10.37,2013-05-11 01:05:00,
2013-05-10 21:10:00,77.7,69.9,30.13,SSE,149,5.0,7.0,77,0.00,BKN,BKN,0.00,WeatherDisplay:10.37,2013-05-11 01:10:00,
2013-05-10 21:15:00,77.7,69.9,30.13,SSE,148,2.0,7.0,77,0.00,BKN,BKN,0.00,WeatherDisplay:10.37,2013-05-11 01:15:00,
2013-05-10 21:20:00,77.5,70.1,30.13,SE,140,5.0,6.0,78,0.00,BKN,BKN,0.00,WeatherDisplay:10.37,2013-05-11 01:20:00,
2013-05-10 21:25:00,77.5,69.7,30.13,SE,139,2.0,6.0,77,0.00,BKN,BKN,0.00,WeatherDisplay:10.37,2013-05-11 01:25:00,
2013-05-10 21:30:00,77.4,70.0,30.12,SE,135,2.0,6.0,78,0.00,BKN,BKN,0.00,WeatherDisplay:10.37,2013-05-11 01:30:00,
2013-05-10 21:35:00,77.2,69.8,30.12,ESE,122,1.0,6.0,78,0.00,BKN,BKN,0.00,WeatherDisplay:10.37,2013-05-11 01:35:00,
2013-05-10 21:40:00,77.0,69.6,30.12,ESE,113,1.0,3.0,78,0.00,BKN,BKN,0.00,WeatherDisplay:10.37,2013-05-11 01:40:00,
2013-05-10 21:45:00,76.8,69.8,30.13,ESE,122,2.0,2.0,79,0.00,BKN,BKN,0.00,WeatherDisplay:10.37,2013-05-11 01:45:00,
2013-05-10 21:50:00,76.8,69.8,30.13,SE,136,1.0,3.0,79,0.00,BKN,BKN,0.00,WeatherDisplay:10.37,2013-05-11 01:50:00,
2013-05-10 21:55:00,76.6,70.0,30.12,SE,133,2.0,5.0,80,0.00,BKN,BKN,0.00,WeatherDisplay:10.37,2013-05-11 01:55:00,
2013-05-10 22:00:00,76.6,70.0,30.13,SE,133,2.0,4.0,80,0.00,BKN,BKN,0.00,WeatherDisplay:10.37,2013-05-11 02:00:00,
2013-05-10 22:05:00,76.6,69.9,30.13,ESE,123,1.0,2.0,80,0.00,BKN,BKN,0.00,WeatherDisplay:10.37,2013-05-11 02:05:00,
2013-05-10 22:10:00,76.3,70.0,30.13,ESE,116,2.0,3.0,81,0.00,BKN,BKN,0.00,WeatherDisplay:10.37,2013-05-11 02:10:00,
2013-05-10 22:15:00,76.3,70.0,30.13,SE,130,2.0,3.0,81,0.00,BKN,BKN,0.00,WeatherDisplay:10.37,2013-05-11 02:15:00,
2013-05-10 22:20:00,76.3,70.0,30.13,SE,134,1.0,2.0,81,0.00,BKN,BKN,0.00,WeatherDisplay:10.37,2013-05-11 02:20:00,
2013-05-10 22:25:00,76.2,69.9,30.13,ESE,111,3.0,5.0,81,0.00,BKN,BKN,0.00,WeatherDisplay:10.37,2013-05-11 02:25:00,
2013-05-10 22:30:00,76.1,69.8,30.13,ESE,106,1.0,3.0,81,0.00,BKN,BKN,0.00,WeatherDisplay:10.37,2013-05-11 02:30:00,
2013-05-10 22:35:00,75.9,70.0,30.13,ESE,113,2.0,5.0,82,0.00,BKN,BKN,0.00,WeatherDisplay:10.37,2013-05-11 02:35:00,
2013-05-10 22:40:00,75.9,70.0,30.13,ESE,121,2.0,5.0,82,0.00,BKN,BKN,0.00,WeatherDisplay:10.37,2013-05-11 02:40:00,
2013-05-10 22:45:00,75.9,70.0,30.13,ESE,123,2.0,5.0,82,0.00,BKN,BKN,0.00,WeatherDisplay:10.37,2013-05-11 02:45:00,
2013-05-10 22:50:00,75.7,69.9,30.13,SE,133,2.0,4.0,82,0.00,BKN,BKN,0.00,WeatherDisplay:10.37,2013-05-11 02:50:00,
2013-05-10 22:55:00,75.7,69.9,30.13,SE,146,1.0,2.0,82,0.00,BKN,BKN,0.00,WeatherDisplay:10.37,2013-05-11 02:55:00,
2013-05-10 23:00:00,75.6,70.0,30.13,ESE,115,1.0,3.0,83,0.00,BKN,BKN,0.00,WeatherDisplay:10.37,2013-05-11 03:00:00,
2013-05-10 23:05:00,75.5,70.0,30.13,East,95,1.0,2.0,83,0.00,FEW,FEW,0.00,WeatherDisplay:10.37,2013-05-11 03:05:00,
2013-05-10 23:10:00,75.2,69.7,30.13,East,91,1.0,1.0,83,0.00,FEW,FEW,0.00,WeatherDisplay:10.37,2013-05-11 03:10:00,
2013-05-10 23:20:00,75.2,70.0,30.14,ESE,122,2.0,2.0,84,0.00,FEW,FEW,0.00,WeatherDisplay:10.37,2013-05-11 03:20:00,
2013-05-10 23:25:00,75.2,70.0,30.13,ESE,114,2.0,3.0,84,0.00,FEW,FEW,0.00,WeatherDisplay:10.37,2013-05-11 03:25:00,
2013-05-10 23:30:00,75.0,69.9,30.13,ESE,121,2.0,2.0,84,0.00,FEW,FEW,0.00,WeatherDisplay:10.37,2013-05-11 03:30:00,
2013-05-10 23:35:00,75.0,69.9,30.14,SE,128,1.0,4.0,84,0.00,FEW,FEW,0.00,WeatherDisplay:10.37,2013-05-11 03:35:00,
2013-05-10 23:40:00,75.0,70.2,30.14,SE,133,2.0,3.0,85,0.00,FEW,FEW,0.00,WeatherDisplay:10.37,2013-05-11 03:40:00,
2013-05-10 23:45:00,75.0,70.2,30.14,SE,131,2.0,5.0,85,0.00,FEW,FEW,0.00,WeatherDisplay:10.37,2013-05-11 03:45:00,
2013-05-10 23:50:00,74.8,70.0,30.14,SE,129,2.0,3.0,85,0.00,FEW,FEW,0.00,WeatherDisplay:10.37,2013-05-11 03:50:00,
2013-05-10 23:55:00,74.7,69.9,30.14,SE,131,1.0,3.0,85,0.00,FEW,FEW,0.00,WeatherDisplay:10.37,2013-05-11 03:55:00,